Terminal Aerodrome Forecast
Issued by NWS

Home | Current Version | Previous Version | Text Only | Print | Product List | Glossary On
Versions: 1 2 3 4 5 6 7 8 9 10 11 12 13 14 15 16 17 18 19 20 21 22 23 24
000
FTUS44 KOUN 042320
TAFPNC
TAF
KPNC 042320Z 0500/0524 14007KT P6SM SCT030 SCT150 PROB30 0510/0514
      6SM -TSRA BKN030CB BKN100
     FM051400 18009KT P6SM SCT050 SCT150=

USA.gov is the U.S. government's official web portal to all federal, state and local government web resources and services.